Time;durP1;ratioP1;P1;durP2;ratioP2;P2;SDS_P1;SDS_P2;PMS_P1;PMS_P2;Temp;Humidity;BMP_temperature;BMP_pressure;BME280_temperature;BME280_humidity;BME280_pressure;Samples;Min_cycle;Max_cycle;Signal;HPM_P1;HPM_P2
2023/08/20 00:00:59;;;;;;;8.30;5.77;;;;;;;;;;5094256;28;20566;-77
2023/08/20 00:03:26;;;;;;;5.93;5.43;;;;;;;;;;5094141;28;20232;-77
2023/08/20 00:05:54;;;;;;;9.60;5.33;;;;;;;;;;5101296;28;20283;-77
2023/08/20 00:08:20;;;;;;;6.90;6.10;;;;;;;;;;5097980;28;20191;-77
2023/08/20 00:10:47;;;;;;;6.53;5.67;;;;;;;;;;5114657;28;20222;-77
2023/08/20 00:13:15;;;;;;;6.73;6.13;;;;;;;;;;5095410;28;20285;-77
2023/08/20 00:15:43;;;;;;;9.50;5.53;;;;;;;;;;5097153;28;20665;-77
2023/08/20 00:18:10;;;;;;;6.30;5.63;;;;;;;;;;5114414;28;20741;-77
2023/08/20 00:20:38;;;;;;;6.90;6.33;;;;;;;;;;5110433;28;20220;-77
2023/08/20 00:23:05;;;;;;;6.33;5.77;;;;;;;;;;5094332;28;20200;-77
2023/08/20 00:25:33;;;;;;;6.97;6.27;;;;;;;;;;5093286;28;20204;-77
2023/08/20 00:28:00;;;;;;;6.20;5.40;;;;;;;;;;5114096;28;20669;-77
2023/08/20 00:30:29;;;;;;;6.97;6.23;;;;;;;;;;5114306;28;20199;-77
2023/08/20 00:32:55;;;;;;;6.53;5.90;;;;;;;;;;5113954;28;20572;-77
2023/08/20 00:35:22;;;;;;;7.90;4.93;;;;;;;;;;5114483;28;20582;-77
2023/08/20 00:37:49;;;;;;;5.53;5.13;;;;;;;;;;5104628;28;20254;-77
2023/08/20 00:40:16;;;;;;;9.70;6.10;;;;;;;;;;5093169;28;20223;-77
2023/08/20 00:42:43;;;;;;;7.07;6.07;;;;;;;;;;5094312;28;20192;-77
2023/08/20 00:45:10;;;;;;;7.10;6.40;;;;;;;;;;5100299;28;20200;-77
2023/08/20 00:47:38;;;;;;;6.10;5.63;;;;;;;;;;5093720;28;20633;-77
2023/08/20 00:50:07;;;;;;;6.60;5.60;;;;;;;;;;5109105;28;20195;-77
2023/08/20 00:52:34;;;;;;;10.07;6.10;;;;;;;;;;5113400;28;20204;-77
2023/08/20 00:55:08;;;;;;;6.20;5.50;;;;;;;;;;5114202;28;20226;-77
2023/08/20 00:57:35;;;;;;;17.33;6.93;;;;;;;;;;5103832;28;20200;-77
2023/08/20 01:00:06;;;;;;;5.77;5.27;;;;;;;;;;5104393;28;20226;-77
2023/08/20 01:02:34;;;;;;;7.57;5.50;;;;;;;;;;5096598;28;20191;-77
2023/08/20 01:05:05;;;;;;;6.33;5.73;;;;;;;;;;5111282;28;20264;-77
2023/08/20 01:07:55;;;;;;;6.30;5.70;;;;;;;;;;5113353;28;20203;-77
2023/08/20 01:10:28;;;;;;;5.37;4.93;;;;;;;;;;5109253;28;20299;-77
2023/08/20 01:12:55;;;;;;;6.23;5.60;;;;;;;;;;5093368;28;20589;-77
2023/08/20 01:15:22;;;;;;;6.57;5.97;;;;;;;;;;5101740;28;20653;-77
2023/08/20 01:17:50;;;;;;;10.43;6.27;;;;;;;;;;5099008;28;20216;-77
2023/08/20 01:20:18;;;;;;;7.43;5.77;;;;;;;;;;5091951;28;20306;-78
2023/08/20 01:23:08;;;;;;;7.27;5.70;;;;;;;;;;5092982;28;20201;-77
2023/08/20 01:25:47;;;;;;;5.33;4.93;;;;;;;;;;5092883;28;20204;-77
2023/08/20 01:28:33;;;;;;;6.20;5.60;;;;;;;;;;5112912;28;20210;-77
2023/08/20 01:31:00;;;;;;;7.20;5.63;;;;;;;;;;5112392;28;20231;-77
2023/08/20 01:33:28;;;;;;;5.70;5.20;;;;;;;;;;5113183;28;20653;-77
2023/08/20 01:35:55;;;;;;;7.00;5.97;;;;;;;;;;5113022;28;20200;-77
2023/08/20 01:38:22;;;;;;;6.97;6.00;;;;;;;;;;5113279;28;20581;-77
2023/08/20 01:40:49;;;;;;;6.67;6.07;;;;;;;;;;5111495;28;20242;-76
2023/08/20 01:43:16;;;;;;;6.37;5.87;;;;;;;;;;5111346;28;20253;-77
2023/08/20 01:45:44;;;;;;;6.90;5.53;;;;;;;;;;5099251;28;20196;-77
2023/08/20 01:48:11;;;;;;;6.10;5.60;;;;;;;;;;5091435;28;20196;-77
2023/08/20 01:50:38;;;;;;;6.47;5.87;;;;;;;;;;5112798;28;20195;-77
2023/08/20 01:53:05;;;;;;;7.70;5.77;;;;;;;;;;5112303;28;20720;-77
2023/08/20 01:55:32;;;;;;;10.33;6.33;;;;;;;;;;5112873;28;20606;-77
2023/08/20 01:57:58;;;;;;;6.60;6.00;;;;;;;;;;5111112;28;20195;-77
2023/08/20 02:00:26;;;;;;;5.90;5.30;;;;;;;;;;5112682;28;20219;-77
2023/08/20 02:02:54;;;;;;;7.10;5.43;;;;;;;;;;5111027;28;20195;-77
2023/08/20 02:05:21;;;;;;;6.23;5.63;;;;;;;;;;5112385;28;20202;-77
2023/08/20 02:07:48;;;;;;;6.07;5.17;;;;;;;;;;5112495;28;20199;-77
2023/08/20 02:10:15;;;;;;;5.90;5.40;;;;;;;;;;5092097;28;20223;-77
2023/08/20 02:12:42;;;;;;;12.27;6.70;;;;;;;;;;5092372;28;20199;-77
2023/08/20 02:15:11;;;;;;;10.40;6.23;;;;;;;;;;5091458;28;20231;-77
2023/08/20 02:17:38;;;;;;;6.37;5.70;;;;;;;;;;5092145;28;20218;-77
2023/08/20 02:20:09;;;;;;;7.33;5.90;;;;;;;;;;5098196;28;20279;-77
2023/08/20 02:22:36;;;;;;;7.37;5.90;;;;;;;;;;5112015;28;20554;-77
2023/08/20 02:25:03;;;;;;;6.87;5.77;;;;;;;;;;5112641;28;20203;-77
2023/08/20 02:27:31;;;;;;;6.40;5.80;;;;;;;;;;5112645;28;20642;-77
2023/08/20 02:29:58;;;;;;;6.10;5.60;;;;;;;;;;5111995;28;20196;-77
2023/08/20 02:32:25;;;;;;;10.63;6.10;;;;;;;;;;5112059;28;20195;-77
2023/08/20 02:34:52;;;;;;;7.47;5.77;;;;;;;;;;5111932;28;20195;-77
2023/08/20 02:37:20;;;;;;;6.30;5.80;;;;;;;;;;5111941;28;20206;-77
2023/08/20 02:39:47;;;;;;;6.13;5.63;;;;;;;;;;5111865;28;20219;-77
2023/08/20 02:42:14;;;;;;;5.67;5.23;;;;;;;;;;5112112;28;20206;-77
2023/08/20 02:44:40;;;;;;;6.27;5.67;;;;;;;;;;5111890;28;20594;-77
2023/08/20 02:47:07;;;;;;;6.77;6.00;;;;;;;;;;5111667;28;20613;-77
2023/08/20 02:49:34;;;;;;;6.70;5.90;;;;;;;;;;5112225;28;20191;-77
2023/08/20 02:52:01;;;;;;;7.10;6.50;;;;;;;;;;5112396;28;20192;-77
2023/08/20 02:54:32;;;;;;;8.83;6.50;;;;;;;;;;5112156;28;20227;-77
2023/08/20 02:56:58;;;;;;;6.20;5.70;;;;;;;;;;5112166;28;20214;-77
2023/08/20 02:59:25;;;;;;;6.77;6.10;;;;;;;;;;5111674;28;20210;-77
2023/08/20 03:01:52;;;;;;;7.07;5.60;;;;;;;;;;5111578;28;20210;-77
2023/08/20 03:04:19;;;;;;;9.20;6.40;;;;;;;;;;5111691;28;20199;-77
2023/08/20 03:06:45;;;;;;;9.27;6.00;;;;;;;;;;5112143;28;20552;-77
2023/08/20 03:09:12;;;;;;;5.50;5.10;;;;;;;;;;5111638;28;20209;-77
2023/08/20 03:11:40;;;;;;;6.37;5.87;;;;;;;;;;5111758;28;20195;-77
2023/08/20 03:14:07;;;;;;;6.90;6.20;;;;;;;;;;5111589;28;20195;-77
2023/08/20 03:16:34;;;;;;;6.80;6.10;;;;;;;;;;5111758;28;20207;-77
2023/08/20 03:19:01;;;;;;;6.30;5.70;;;;;;;;;;5111586;28;20200;-77
2023/08/20 03:21:29;;;;;;;9.70;6.43;;;;;;;;;;5110421;28;20231;-77
2023/08/20 03:23:56;;;;;;;6.57;5.83;;;;;;;;;;5111602;28;20200;-77
2023/08/20 03:26:22;;;;;;;8.80;8.00;;;;;;;;;;5111888;28;20210;-77
2023/08/20 03:28:51;;;;;;;12.37;11.30;;;;;;;;;;5114001;28;20560;-77
2023/08/20 03:31:17;;;;;;;8.13;7.43;;;;;;;;;;5115269;28;20199;-77
2023/08/20 03:33:44;;;;;;;9.00;8.10;;;;;;;;;;5115112;28;20199;-77
2023/08/20 03:36:11;;;;;;;7.53;6.83;;;;;;;;;;5115651;28;20199;-77
2023/08/20 03:38:38;;;;;;;7.33;6.63;;;;;;;;;;5115403;28;20199;-77
2023/08/20 03:41:04;;;;;;;9.17;7.30;;;;;;;;;;5115308;28;20626;-77
2023/08/20 03:43:31;;;;;;;12.13;10.93;;;;;;;;;;5115517;28;20199;-77
2023/08/20 03:45:59;;;;;;;9.80;8.90;;;;;;;;;;5115170;28;20202;-77
2023/08/20 03:48:26;;;;;;;6.87;6.17;;;;;;;;;;5113291;28;20206;-77
2023/08/20 03:50:53;;;;;;;7.30;6.70;;;;;;;;;;5115511;28;20202;-77
2023/08/20 03:53:19;;;;;;;6.63;6.03;;;;;;;;;;5112527;28;20196;-77
2023/08/20 03:55:49;;;;;;;8.27;6.57;;;;;;;;;;5113851;28;20219;-76
2023/08/20 03:58:16;;;;;;;5.70;5.27;;;;;;;;;;5113481;28;20734;-77
2023/08/20 04:00:43;;;;;;;7.63;6.90;;;;;;;;;;5114114;28;20207;-77
2023/08/20 04:03:11;;;;;;;6.63;6.03;;;;;;;;;;5115197;28;20245;-77
2023/08/20 04:05:38;;;;;;;6.60;5.97;;;;;;;;;;5115382;28;20191;-77
2023/08/20 04:08:05;;;;;;;6.97;6.17;;;;;;;;;;5114713;28;20206;-77
2023/08/20 04:10:32;;;;;;;11.10;8.23;;;;;;;;;;5114954;28;20229;-77
2023/08/20 04:12:59;;;;;;;6.20;5.70;;;;;;;;;;5114869;28;20202;-77
2023/08/20 04:15:26;;;;;;;6.30;5.70;;;;;;;;;;5114272;28;20199;-76
2023/08/20 04:17:53;;;;;;;7.00;6.30;;;;;;;;;;5114251;28;20662;-76
2023/08/20 04:20:21;;;;;;;8.07;6.67;;;;;;;;;;5114523;28;20302;-76
2023/08/20 04:22:48;;;;;;;8.33;7.53;;;;;;;;;;5114697;28;20196;-76
2023/08/20 04:25:15;;;;;;;9.07;7.77;;;;;;;;;;5114337;28;20642;-76
2023/08/20 04:27:42;;;;;;;13.33;8.93;;;;;;;;;;5112455;28;20218;-76
2023/08/20 04:30:11;;;;;;;20.37;8.00;;;;;;;;;;5114266;28;20207;-75
2023/08/20 04:32:37;;;;;;;16.73;9.30;;;;;;;;;;5113699;28;20566;-76
2023/08/20 04:35:05;;;;;;;10.03;6.77;;;;;;;;;;5114044;28;20196;-76
2023/08/20 04:37:33;;;;;;;7.63;6.80;;;;;;;;;;5112594;28;20198;-78
2023/08/20 04:40:00;;;;;;;7.47;6.77;;;;;;;;;;5092094;28;20249;-76
2023/08/20 04:42:26;;;;;;;8.67;7.20;;;;;;;;;;5099436;28;20192;-76
2023/08/20 04:44:53;;;;;;;7.33;6.63;;;;;;;;;;5114254;28;20196;-76
2023/08/20 04:47:20;;;;;;;7.83;7.07;;;;;;;;;;5114104;28;20577;-76
2023/08/20 04:49:47;;;;;;;7.37;6.50;;;;;;;;;;5107341;28;20200;-76
2023/08/20 04:52:13;;;;;;;6.77;6.10;;;;;;;;;;5093756;28;20192;-76
2023/08/20 04:54:42;;;;;;;6.37;5.67;;;;;;;;;;5105021;28;20227;-79
2023/08/20 04:57:08;;;;;;;7.03;6.33;;;;;;;;;;5113859;28;20195;-78
2023/08/20 04:59:35;;;;;;;6.53;5.40;;;;;;;;;;5114324;28;20198;-78
2023/08/20 05:02:02;;;;;;;5.77;5.30;;;;;;;;;;5113353;28;20275;-78
2023/08/20 05:04:30;;;;;;;7.10;6.27;;;;;;;;;;5113770;28;20199;-78
2023/08/20 05:06:56;;;;;;;6.73;6.13;;;;;;;;;;5112882;28;20214;-78
2023/08/20 05:09:23;;;;;;;7.40;6.70;;;;;;;;;;5113248;28;20195;-78
2023/08/20 05:11:51;;;;;;;6.30;5.80;;;;;;;;;;5113791;28;20260;-78
2023/08/20 05:14:18;;;;;;;9.77;6.60;;;;;;;;;;5113930;28;20196;-78
2023/08/20 05:16:45;;;;;;;6.57;6.00;;;;;;;;;;5113600;28;20203;-78
2023/08/20 05:19:11;;;;;;;6.40;5.80;;;;;;;;;;5112033;28;20200;-79
2023/08/20 05:21:38;;;;;;;6.57;5.53;;;;;;;;;;5113369;28;20236;-78
2023/08/20 05:24:06;;;;;;;7.57;5.57;;;;;;;;;;5113165;28;20575;-77
2023/08/20 05:26:32;;;;;;;6.30;5.80;;;;;;;;;;5113086;28;20615;-78
2023/08/20 05:29:00;;;;;;;6.67;5.97;;;;;;;;;;5098791;28;20204;-77
2023/08/20 05:31:28;;;;;;;6.30;5.70;;;;;;;;;;5093012;28;20200;-77
2023/08/20 05:33:54;;;;;;;5.97;5.47;;;;;;;;;;5092432;28;20671;-77
2023/08/20 05:36:21;;;;;;;5.93;5.43;;;;;;;;;;5093121;28;20193;-77
2023/08/20 05:38:48;;;;;;;6.07;5.47;;;;;;;;;;5092398;28;20207;-77
2023/08/20 05:41:15;;;;;;;5.23;4.80;;;;;;;;;;5092770;28;20219;-77
2023/08/20 05:43:42;;;;;;;5.70;5.10;;;;;;;;;;5092746;28;20207;-77
2023/08/20 05:46:10;;;;;;;10.13;6.60;;;;;;;;;;5098978;28;20678;-77
2023/08/20 05:48:36;;;;;;;6.20;5.60;;;;;;;;;;5113066;28;20203;-77
2023/08/20 05:51:03;;;;;;;5.73;5.23;;;;;;;;;;5110526;28;20195;-77
2023/08/20 05:53:30;;;;;;;6.13;5.60;;;;;;;;;;5112735;28;20227;-77
2023/08/20 05:55:57;;;;;;;9.00;5.67;;;;;;;;;;5112550;28;20195;-77
2023/08/20 05:58:24;;;;;;;6.17;5.60;;;;;;;;;;5112358;28;20570;-77
2023/08/20 06:00:51;;;;;;;5.37;4.87;;;;;;;;;;5105481;28;20690;-77
2023/08/20 06:03:19;;;;;;;6.63;5.63;;;;;;;;;;5092090;28;20208;-77
2023/08/20 06:05:46;;;;;;;6.93;5.33;;;;;;;;;;5091962;28;20655;-77
2023/08/20 06:08:12;;;;;;;5.30;4.87;;;;;;;;;;5092000;28;20651;-77
2023/08/20 06:10:39;;;;;;;7.73;4.87;;;;;;;;;;5091880;28;20658;-77
2023/08/20 06:13:06;;;;;;;5.67;4.97;;;;;;;;;;5092145;28;20200;-77
2023/08/20 06:15:33;;;;;;;5.63;4.80;;;;;;;;;;5096811;28;20192;-77
2023/08/20 06:17:59;;;;;;;5.00;4.60;;;;;;;;;;5111475;28;20587;-77
2023/08/20 06:20:28;;;;;;;5.03;4.63;;;;;;;;;;5107390;28;20199;-77
2023/08/20 06:22:55;;;;;;;11.53;5.87;;;;;;;;;;5092130;28;20200;-77
2023/08/20 06:25:22;;;;;;;5.60;4.70;;;;;;;;;;5090233;28;20204;-77
2023/08/20 06:27:49;;;;;;;7.63;4.83;;;;;;;;;;5099925;28;20192;-77
2023/08/20 06:30:16;;;;;;;5.33;4.67;;;;;;;;;;5100522;28;20191;-77
2023/08/20 06:32:43;;;;;;;6.17;5.20;;;;;;;;;;5099309;28;20200;-77
2023/08/20 06:35:10;;;;;;;5.30;4.80;;;;;;;;;;5092497;28;20207;-77
2023/08/20 06:37:39;;;;;;;5.87;5.30;;;;;;;;;;5109349;28;20195;-77
2023/08/20 06:40:07;;;;;;;4.87;4.47;;;;;;;;;;5111997;28;20195;-77
2023/08/20 06:42:34;;;;;;;5.47;4.63;;;;;;;;;;5112473;28;20223;-77
2023/08/20 06:45:01;;;;;;;5.40;4.90;;;;;;;;;;5112137;28;20202;-78
2023/08/20 06:47:28;;;;;;;6.37;4.70;;;;;;;;;;5101428;28;20194;-77
2023/08/20 06:49:55;;;;;;;4.40;4.10;;;;;;;;;;5111884;28;20541;-77
2023/08/20 06:52:22;;;;;;;6.03;4.83;;;;;;;;;;5112162;28;20221;-77
2023/08/20 06:54:50;;;;;;;5.20;4.70;;;;;;;;;;5105702;28;20232;-77
2023/08/20 06:57:17;;;;;;;4.80;4.40;;;;;;;;;;5100851;28;20669;-77
2023/08/20 06:59:43;;;;;;;8.83;5.20;;;;;;;;;;5098227;28;20193;-77
2023/08/20 07:02:11;;;;;;;5.32;4.40;;;;;;;;;;5092085;28;20574;-77
2023/08/20 07:04:37;;;;;;;5.60;5.10;;;;;;;;;;5094359;28;20254;-77
2023/08/20 07:07:06;;;;;;;4.55;4.15;;;;;;;;;;5095634;28;20191;-77
2023/08/20 07:09:33;;;;;;;4.85;4.47;;;;;;;;;;5096144;28;20201;-77
2023/08/20 07:12:02;;;;;;;5.20;4.70;;;;;;;;;;5095195;28;20200;-77
2023/08/20 07:14:29;;;;;;;4.40;4.00;;;;;;;;;;5095280;28;20675;-77
2023/08/20 07:16:56;;;;;;;6.03;4.97;;;;;;;;;;5095096;28;20200;-77
2023/08/20 07:19:23;;;;;;;4.72;4.30;;;;;;;;;;5095405;28;20192;-77
2023/08/20 07:21:50;;;;;;;6.15;4.88;;;;;;;;;;5094995;28;20224;-76
2023/08/20 07:24:16;;;;;;;5.20;3.97;;;;;;;;;;5095542;28;20196;-77
2023/08/20 07:26:43;;;;;;;4.40;4.10;;;;;;;;;;5094730;28;20566;-76
2023/08/20 07:29:12;;;;;;;5.05;4.60;;;;;;;;;;5102484;28;20196;-77
2023/08/20 07:31:39;;;;;;;5.18;3.47;;;;;;;;;;5101982;28;20670;-77
2023/08/20 07:34:06;;;;;;;4.40;4.10;;;;;;;;;;5095328;28;20204;-76
2023/08/20 07:36:32;;;;;;;5.30;4.22;;;;;;;;;;5111717;28;20207;-76
2023/08/20 07:39:00;;;;;;;3.90;3.55;;;;;;;;;;5115532;28;20203;-76
2023/08/20 07:41:27;;;;;;;4.03;3.72;;;;;;;;;;5104805;28;20227;-77
2023/08/20 07:43:54;;;;;;;4.20;3.80;;;;;;;;;;5105677;28;20553;-76
2023/08/20 07:46:22;;;;;;;4.43;4.03;;;;;;;;;;5094938;28;20196;-77
2023/08/20 07:48:49;;;;;;;4.88;4.45;;;;;;;;;;5094519;28;20670;-77
2023/08/20 07:51:15;;;;;;;4.57;3.42;;;;;;;;;;5094744;28;20337;-77
2023/08/20 07:53:42;;;;;;;6.35;3.65;;;;;;;;;;5094387;28;20235;-77
2023/08/20 07:56:09;;;;;;;6.93;4.20;;;;;;;;;;5094575;28;20222;-77
2023/08/20 07:58:37;;;;;;;5.35;3.97;;;;;;;;;;5093077;28;20227;-77
2023/08/20 08:01:04;;;;;;;4.47;4.07;;;;;;;;;;5095200;28;20627;-77
2023/08/20 08:03:32;;;;;;;4.43;3.80;;;;;;;;;;5094616;28;20196;-76
2023/08/20 08:05:59;;;;;;;4.30;3.95;;;;;;;;;;5094489;28;20208;-77
2023/08/20 08:08:25;;;;;;;5.15;3.35;;;;;;;;;;5094329;28;20196;-76
2023/08/20 08:10:52;;;;;;;4.43;4.03;;;;;;;;;;5093041;28;20205;-76
2023/08/20 08:13:21;;;;;;;4.38;3.95;;;;;;;;;;5111898;28;21869;-76
2023/08/20 08:15:50;;;;;;;4.25;3.92;;;;;;;;;;5099478;28;20564;-77
2023/08/20 08:18:17;;;;;;;4.40;3.70;;;;;;;;;;5111511;28;20688;-77
2023/08/20 08:20:45;;;;;;;4.93;4.40;;;;;;;;;;5110273;28;20192;-77
2023/08/20 08:23:13;;;;;;;3.70;3.40;;;;;;;;;;5094488;28;20224;-77
2023/08/20 08:25:41;;;;;;;3.90;3.60;;;;;;;;;;5094302;28;20666;-77
2023/08/20 08:28:07;;;;;;;4.05;3.75;;;;;;;;;;5099392;28;20203;-77
2023/08/20 08:30:34;;;;;;;4.40;3.33;;;;;;;;;;5093592;28;20203;-77
2023/08/20 08:33:02;;;;;;;6.07;3.80;;;;;;;;;;5093597;28;20235;-77
2023/08/20 08:35:31;;;;;;;4.45;4.13;;;;;;;;;;5107252;28;20285;-77
2023/08/20 08:37:59;;;;;;;4.97;3.92;;;;;;;;;;5104629;28;20196;-77
2023/08/20 08:40:30;;;;;;;4.78;3.80;;;;;;;;;;5093674;28;20728;-77
2023/08/20 08:42:57;;;;;;;5.03;4.15;;;;;;;;;;5101401;28;20251;-76
2023/08/20 08:45:24;;;;;;;4.45;3.75;;;;;;;;;;5113436;28;20209;-77
2023/08/20 08:47:52;;;;;;;6.80;3.92;;;;;;;;;;5106601;28;20200;-77
2023/08/20 08:50:18;;;;;;;3.72;3.42;;;;;;;;;;5101985;28;20196;-77
2023/08/20 08:52:46;;;;;;;8.35;5.22;;;;;;;;;;5113455;28;20199;-76
2023/08/20 08:55:14;;;;;;;3.85;3.55;;;;;;;;;;5099023;28;20220;-76
2023/08/20 08:57:41;;;;;;;4.35;3.83;;;;;;;;;;5093436;28;20204;-77
2023/08/20 09:00:09;;;;;;;8.15;3.50;;;;;;;;;;5093223;28;20203;-77
2023/08/20 09:02:36;;;;;;;5.22;4.28;;;;;;;;;;5093101;28;20249;-77
2023/08/20 09:05:03;;;;;;;3.88;3.58;;;;;;;;;;5091787;28;20754;-76
2023/08/20 09:07:30;;;;;;;4.10;3.42;;;;;;;;;;5093334;28;20204;-77
2023/08/20 09:10:00;;;;;;;4.43;3.90;;;;;;;;;;5093045;28;20571;-76
2023/08/20 09:12:30;;;;;;;9.98;4.50;;;;;;;;;;5093907;28;20197;-76
2023/08/20 09:15:00;;;;;;;3.78;3.47;;;;;;;;;;5106363;28;20252;-77
2023/08/20 09:17:31;;;;;;;4.78;4.07;;;;;;;;;;5113078;28;20191;-77
2023/08/20 09:19:58;;;;;;;4.20;3.80;;;;;;;;;;5113541;28;20288;-77
2023/08/20 09:22:25;;;;;;;4.32;3.80;;;;;;;;;;5113394;28;20344;-77
2023/08/20 09:24:55;;;;;;;4.40;3.38;;;;;;;;;;5112701;28;20202;-77
2023/08/20 09:27:22;;;;;;;4.65;4.25;;;;;;;;;;5113342;28;20196;-77
2023/08/20 09:29:51;;;;;;;3.92;3.63;;;;;;;;;;5113324;28;20230;-77
2023/08/20 09:32:19;;;;;;;4.30;3.85;;;;;;;;;;5113617;28;20191;-77
2023/08/20 09:34:47;;;;;;;4.53;4.15;;;;;;;;;;5078220;28;20208;-77
2023/08/20 09:37:14;;;;;;;4.15;3.63;;;;;;;;;;5113083;28;20211;-77
2023/08/20 09:39:42;;;;;;;4.10;3.80;;;;;;;;;;5112850;28;20653;-77
2023/08/20 09:42:09;;;;;;;4.38;3.45;;;;;;;;;;5111075;28;20215;-77
2023/08/20 09:44:37;;;;;;;4.72;4.32;;;;;;;;;;5100449;28;20284;-77
2023/08/20 09:47:09;;;;;;;4.13;3.72;;;;;;;;;;5092803;28;20200;-76
2023/08/20 09:49:42;;;;;;;4.05;3.65;;;;;;;;;;5092807;28;20570;-77
2023/08/20 09:52:11;;;;;;;4.22;3.75;;;;;;;;;;5092203;28;20196;-76
2023/08/20 09:54:56;;;;;;;5.55;3.80;;;;;;;;;;5092359;28;20231;-77
2023/08/20 09:57:31;;;;;;;3.92;3.60;;;;;;;;;;5093001;28;20538;-77
2023/08/20 09:59:58;;;;;;;3.63;3.33;;;;;;;;;;5092211;28;20235;-77
2023/08/20 10:02:32;;;;;;;5.82;3.92;;;;;;;;;;5092496;28;20227;-77
2023/08/20 10:05:01;;;;;;;3.72;3.30;;;;;;;;;;5092433;28;20219;-77
2023/08/20 10:07:32;;;;;;;4.68;3.50;;;;;;;;;;5092230;28;20196;-76
2023/08/20 10:10:00;;;;;;;3.70;3.50;;;;;;;;;;5092183;28;20211;-76
2023/08/20 10:12:29;;;;;;;7.35;4.20;;;;;;;;;;5091818;28;20210;-76
2023/08/20 10:14:56;;;;;;;4.88;3.92;;;;;;;;;;5104589;28;20286;-77
2023/08/20 10:17:24;;;;;;;5.95;3.15;;;;;;;;;;5112204;28;20201;-77
2023/08/20 10:19:52;;;;;;;3.63;3.38;;;;;;;;;;5112701;28;20264;-76
2023/08/20 10:22:19;;;;;;;3.20;3.00;;;;;;;;;;5112540;28;20226;-76
2023/08/20 10:24:50;;;;;;;5.72;3.25;;;;;;;;;;5112336;28;20196;-77
2023/08/20 10:27:26;;;;;;;3.92;3.63;;;;;;;;;;5112632;28;20647;-77
2023/08/20 10:29:54;;;;;;;3.58;3.10;;;;;;;;;;5112085;28;20199;-76
2023/08/20 10:32:21;;;;;;;3.42;3.13;;;;;;;;;;5112945;28;20199;-77
2023/08/20 10:34:53;;;;;;;7.65;3.33;;;;;;;;;;5112240;28;20195;-77
2023/08/20 10:37:31;;;;;;;5.57;3.30;;;;;;;;;;5112633;28;20685;-77
2023/08/20 10:39:58;;;;;;;3.42;3.13;;;;;;;;;;5108582;28;20647;-76
2023/08/20 10:42:29;;;;;;;4.47;3.25;;;;;;;;;;5095885;28;20216;-76
2023/08/20 10:45:08;;;;;;;3.17;2.88;;;;;;;;;;5096154;28;20196;-77
2023/08/20 10:47:43;;;;;;;4.57;3.58;;;;;;;;;;5096561;28;20200;-76
2023/08/20 10:50:12;;;;;;;3.88;3.58;;;;;;;;;;5094670;28;20196;-76
2023/08/20 10:52:42;;;;;;;6.22;3.40;;;;;;;;;;5095539;28;20204;-76
2023/08/20 10:55:09;;;;;;;3.85;3.55;;;;;;;;;;5096035;28;20224;-77
2023/08/20 10:57:36;;;;;;;3.70;2.80;;;;;;;;;;5096087;28;20200;-77
2023/08/20 11:00:11;;;;;;;3.67;3.38;;;;;;;;;;5095950;28;20210;-77
2023/08/20 11:02:38;;;;;;;4.22;3.40;;;;;;;;;;5115691;28;20225;-77
2023/08/20 11:05:05;;;;;;;4.07;3.70;;;;;;;;;;5116181;28;20198;-77
2023/08/20 11:07:35;;;;;;;4.25;3.65;;;;;;;;;;5113704;28;20196;-77
2023/08/20 11:10:03;;;;;;;3.08;2.88;;;;;;;;;;5107921;28;20273;-76
2023/08/20 11:12:31;;;;;;;4.18;3.78;;;;;;;;;;5096003;28;20683;-77
2023/08/20 11:15:02;;;;;;;3.95;3.65;;;;;;;;;;5095756;28;20250;-77
2023/08/20 11:17:31;;;;;;;3.75;3.42;;;;;;;;;;5095441;28;20210;-77
2023/08/20 11:19:57;;;;;;;5.80;4.28;;;;;;;;;;5095239;28;20206;-76
2023/08/20 11:22:24;;;;;;;4.05;3.72;;;;;;;;;;5095098;28;20583;-77
2023/08/20 11:24:52;;;;;;;4.00;3.70;;;;;;;;;;5094901;28;20200;-77
2023/08/20 11:27:19;;;;;;;6.88;4.30;;;;;;;;;;5095367;28;20207;-77
2023/08/20 11:29:46;;;;;;;4.95;4.47;;;;;;;;;;5094859;28;20295;-77
2023/08/20 11:32:14;;;;;;;5.25;4.57;;;;;;;;;;5095048;28;20628;-77
2023/08/20 11:34:40;;;;;;;5.07;4.68;;;;;;;;;;5095780;28;20219;-77
2023/08/20 11:37:07;;;;;;;5.45;4.53;;;;;;;;;;5094706;28;20196;-77
2023/08/20 11:39:34;;;;;;;10.07;4.68;;;;;;;;;;5094684;28;20254;-76
2023/08/20 11:42:02;;;;;;;5.03;4.38;;;;;;;;;;5094608;28;20211;-77
2023/08/20 11:44:43;;;;;;;6.35;4.75;;;;;;;;;;5094883;28;20283;-77
2023/08/20 11:47:14;;;;;;;4.38;4.07;;;;;;;;;;5094771;28;20203;-77
2023/08/20 11:49:41;;;;;;;4.95;4.05;;;;;;;;;;5094962;28;20748;-77
2023/08/20 11:52:09;;;;;;;4.93;4.47;;;;;;;;;;5094435;28;20686;-77
2023/08/20 11:54:36;;;;;;;4.90;4.50;;;;;;;;;;5094750;28;20251;-77
2023/08/20 11:57:05;;;;;;;4.57;4.20;;;;;;;;;;5104002;28;20200;-77
2023/08/20 11:59:34;;;;;;;4.13;3.83;;;;;;;;;;5115799;28;20196;-77
2023/08/20 12:02:02;;;;;;;4.93;4.03;;;;;;;;;;5114937;28;20207;-77
2023/08/20 12:04:31;;;;;;;7.70;5.15;;;;;;;;;;5113731;28;20254;-77
2023/08/20 12:07:05;;;;;;;4.53;4.13;;;;;;;;;;5114811;28;20191;-77
2023/08/20 12:09:32;;;;;;;7.20;4.45;;;;;;;;;;5114453;28;20244;-76
2023/08/20 12:11:59;;;;;;;4.93;4.53;;;;;;;;;;5108107;28;20220;-76
2023/08/20 12:14:28;;;;;;;4.40;4.00;;;;;;;;;;5094332;28;20200;-77
2023/08/20 12:16:55;;;;;;;6.10;5.13;;;;;;;;;;5094077;28;20666;-77
2023/08/20 12:19:22;;;;;;;5.10;4.50;;;;;;;;;;5094088;28;20195;-77
2023/08/20 12:21:49;;;;;;;6.63;4.95;;;;;;;;;;5093731;28;20624;-77
2023/08/20 12:24:16;;;;;;;5.65;4.43;;;;;;;;;;5096643;28;20253;-77
2023/08/20 12:26:43;;;;;;;5.00;4.57;;;;;;;;;;5114140;28;20650;-77
2023/08/20 12:29:10;;;;;;;4.47;4.10;;;;;;;;;;5114063;28;20599;-77
2023/08/20 12:31:39;;;;;;;4.78;4.32;;;;;;;;;;5114810;28;20257;-77
2023/08/20 12:34:07;;;;;;;4.90;4.50;;;;;;;;;;5112816;28;20196;-78
2023/08/20 12:36:34;;;;;;;6.97;4.32;;;;;;;;;;5114126;28;20204;-77
2023/08/20 12:39:00;;;;;;;5.60;4.53;;;;;;;;;;5112927;28;20191;-77
2023/08/20 12:41:27;;;;;;;4.57;4.20;;;;;;;;;;5113781;28;20195;-77
2023/08/20 12:43:54;;;;;;;4.70;4.30;;;;;;;;;;5114323;28;20222;-77
2023/08/20 12:46:21;;;;;;;4.95;4.55;;;;;;;;;;5097063;28;20728;-77
2023/08/20 12:48:49;;;;;;;6.63;4.95;;;;;;;;;;5093160;28;20262;-77
2023/08/20 12:51:17;;;;;;;4.97;4.57;;;;;;;;;;5095412;28;20195;-77
2023/08/20 12:53:44;;;;;;;5.78;5.28;;;;;;;;;;5105655;28;20244;-77
2023/08/20 12:56:11;;;;;;;5.25;4.72;;;;;;;;;;5093977;28;20191;-77
2023/08/20 12:58:38;;;;;;;5.32;4.82;;;;;;;;;;5093988;28;20196;-77
2023/08/20 13:01:08;;;;;;;5.45;5.05;;;;;;;;;;5097637;28;20754;-80
2023/08/20 13:03:35;;;;;;;5.70;5.10;;;;;;;;;;5113805;28;20215;-76
2023/08/20 13:06:04;;;;;;;5.47;4.97;;;;;;;;;;5112460;28;20207;-76
2023/08/20 13:08:32;;;;;;;5.40;4.90;;;;;;;;;;5113652;28;20195;-76
2023/08/20 13:10:59;;;;;;;4.85;4.53;;;;;;;;;;5113716;28;20195;-77
2023/08/20 13:13:26;;;;;;;5.97;5.38;;;;;;;;;;5113193;28;20593;-76
2023/08/20 13:15:54;;;;;;;5.45;4.95;;;;;;;;;;5113818;28;20205;-76
2023/08/20 13:18:24;;;;;;;5.60;4.75;;;;;;;;;;5113108;28;20205;-76
2023/08/20 13:20:52;;;;;;;5.25;4.75;;;;;;;;;;5113785;28;20207;-77
2023/08/20 13:23:20;;;;;;;8.38;4.72;;;;;;;;;;5113553;28;20226;-77
2023/08/20 13:25:47;;;;;;;5.88;5.28;;;;;;;;;;5113404;28;20199;-77
2023/08/20 13:28:14;;;;;;;5.47;4.97;;;;;;;;;;5112958;28;20195;-77
2023/08/20 13:30:41;;;;;;;6.00;5.50;;;;;;;;;;5111676;28;20574;-76
2023/08/20 13:33:08;;;;;;;9.00;4.88;;;;;;;;;;5095430;28;20204;-76
2023/08/20 13:35:35;;;;;;;5.30;4.90;;;;;;;;;;5092592;28;20611;-77
2023/08/20 13:38:02;;;;;;;7.05;5.03;;;;;;;;;;5091675;28;20200;-77
2023/08/20 13:40:32;;;;;;;5.38;4.88;;;;;;;;;;5103484;28;20200;-78
2023/08/20 13:42:59;;;;;;;6.88;5.10;;;;;;;;;;5113150;28;20222;-78
2023/08/20 13:45:26;;;;;;;5.07;4.68;;;;;;;;;;5105057;28;20208;-77
2023/08/20 13:47:52;;;;;;;6.18;4.45;;;;;;;;;;5092353;28;20196;-77
2023/08/20 13:50:19;;;;;;;4.65;4.28;;;;;;;;;;5092708;28;20204;-78
2023/08/20 13:52:46;;;;;;;8.05;5.65;;;;;;;;;;5092532;28;20203;-78
2023/08/20 13:55:13;;;;;;;5.43;4.93;;;;;;;;;;5093195;28;20723;-78
2023/08/20 13:57:41;;;;;;;5.63;4.60;;;;;;;;;;5112793;28;20206;-77
2023/08/20 14:00:11;;;;;;;7.65;5.15;;;;;;;;;;5110646;28;20191;-79
2023/08/20 14:02:38;;;;;;;5.63;5.00;;;;;;;;;;5091436;28;20192;-76
2023/08/20 14:05:08;;;;;;;5.72;5.32;;;;;;;;;;5092020;28;20223;-75
2023/08/20 14:07:35;;;;;;;8.82;6.03;;;;;;;;;;5090978;28;20655;-75
2023/08/20 14:10:02;;;;;;;7.55;4.97;;;;;;;;;;5092078;28;20192;-76
2023/08/20 14:12:31;;;;;;;5.07;4.57;;;;;;;;;;5090943;28;20601;-76
2023/08/20 14:14:59;;;;;;;7.47;4.82;;;;;;;;;;5091983;28;20200;-75
2023/08/20 14:17:26;;;;;;;5.15;4.68;;;;;;;;;;5092165;28;20637;-75
2023/08/20 14:19:53;;;;;;;5.50;5.00;;;;;;;;;;5091648;28;20206;-76
2023/08/20 14:22:20;;;;;;;5.63;5.22;;;;;;;;;;5094278;28;20646;-77
2023/08/20 14:24:47;;;;;;;6.22;5.63;;;;;;;;;;5112183;28;20585;-77
2023/08/20 14:27:13;;;;;;;5.65;5.18;;;;;;;;;;5102183;28;20227;-77
2023/08/20 14:29:41;;;;;;;5.63;5.07;;;;;;;;;;5103207;28;20202;-77
2023/08/20 14:32:09;;;;;;;8.32;5.07;;;;;;;;;;5111620;28;20199;-78
2023/08/20 14:34:36;;;;;;;5.30;4.63;;;;;;;;;;5112013;28;20191;-77
2023/08/20 14:37:03;;;;;;;4.90;4.60;;;;;;;;;;5112643;28;20592;-77
2023/08/20 14:39:32;;;;;;;4.72;4.32;;;;;;;;;;5112229;28;20199;-77
2023/08/20 14:41:59;;;;;;;6.45;5.30;;;;;;;;;;5112075;28;20684;-77
2023/08/20 14:44:26;;;;;;;5.28;4.78;;;;;;;;;;5111815;28;20226;-77
2023/08/20 14:46:53;;;;;;;5.95;4.65;;;;;;;;;;5112657;28;20252;-77